createdAt,value
2018-07-03T00:00:27.036Z,18.33
2018-07-03T00:03:01.600Z,18.27
2018-07-03T00:05:36.156Z,18.28
2018-07-03T00:08:10.647Z,18.25
2018-07-03T00:10:45.225Z,18.32
2018-07-03T00:13:19.857Z,18.42
2018-07-03T00:15:54.284Z,18.36
2018-07-03T00:18:28.868Z,18.28
2018-07-03T00:21:03.523Z,18.25
2018-07-03T00:23:37.967Z,18.30
2018-07-03T00:26:12.852Z,18.28
2018-07-03T00:28:47.490Z,18.27
2018-07-03T00:31:22.066Z,18.17
2018-07-03T00:33:56.625Z,18.17
2018-07-03T00:36:31.079Z,18.22
2018-07-03T00:39:07.619Z,18.20
2018-07-03T00:41:42.217Z,18.11
2018-07-03T00:44:16.759Z,18.03
2018-07-03T00:46:51.254Z,18.00
2018-07-03T00:49:25.701Z,18.05
2018-07-03T00:52:00.198Z,18.05
2018-07-03T00:54:34.714Z,17.97
2018-07-03T00:57:09.136Z,17.98
2018-07-03T00:59:54.948Z,17.94
2018-07-03T01:02:29.332Z,17.91
2018-07-03T01:05:03.778Z,17.84
2018-07-03T01:07:38.301Z,17.95
2018-07-03T01:10:12.889Z,18.01
2018-07-03T01:12:47.459Z,18.00
2018-07-03T01:15:22.132Z,17.91
2018-07-03T01:17:57.040Z,17.86
2018-07-03T01:20:31.501Z,17.78
2018-07-03T01:23:06.480Z,17.73
2018-07-03T01:25:41.000Z,17.56
2018-07-03T01:28:15.468Z,17.42
2018-07-03T01:30:50.344Z,17.37
2018-07-03T01:33:24.941Z,17.23
2018-07-03T01:35:59.337Z,17.16
2018-07-03T01:38:33.866Z,17.14
2018-07-03T01:41:08.282Z,17.10
2018-07-03T01:43:42.961Z,16.99
2018-07-03T01:46:17.576Z,16.92
2018-07-03T01:48:52.055Z,16.87
2018-07-03T01:51:26.700Z,16.81
2018-07-03T01:54:01.395Z,16.70
2018-07-03T01:56:35.972Z,16.71
2018-07-03T01:59:10.581Z,16.73
2018-07-03T02:01:45.146Z,16.61
2018-07-03T02:04:19.622Z,16.52
2018-07-03T02:06:54.204Z,16.54
2018-07-03T02:09:28.587Z,16.55
2018-07-03T02:12:03.030Z,16.56
2018-07-03T02:14:37.452Z,16.55
2018-07-03T02:17:11.876Z,16.63
2018-07-03T02:19:46.291Z,16.58
2018-07-03T02:22:20.702Z,16.54
2018-07-03T02:24:55.119Z,16.43
2018-07-03T02:27:29.406Z,16.34
2018-07-03T02:30:03.839Z,16.36
2018-07-03T02:32:38.124Z,16.46
2018-07-03T02:35:12.484Z,16.44
2018-07-03T02:37:46.841Z,16.45
2018-07-03T02:40:21.051Z,16.35
2018-07-03T02:42:55.403Z,16.31
2018-07-03T02:45:29.745Z,16.38
2018-07-03T02:48:04.104Z,16.31
2018-07-03T02:50:38.448Z,16.21
2018-07-03T02:53:12.685Z,16.15
2018-07-03T02:55:47.147Z,16.16
2018-07-03T02:58:21.636Z,16.23
2018-07-03T03:00:55.891Z,16.13
2018-07-03T03:03:30.131Z,16.12
2018-07-03T03:06:04.500Z,16.19
2018-07-03T03:08:39.040Z,16.20
2018-07-03T03:11:13.482Z,16.07
2018-07-03T03:13:47.832Z,16.02
2018-07-03T03:16:22.064Z,16.10
2018-07-03T03:18:56.465Z,16.17
2018-07-03T03:21:30.699Z,16.23
2018-07-03T03:24:04.892Z,16.31
2018-07-03T03:26:39.120Z,16.35
2018-07-03T03:29:13.618Z,16.41
2018-07-03T03:31:47.904Z,16.40
2018-07-03T03:34:22.335Z,16.35
2018-07-03T03:36:56.615Z,16.34
2018-07-03T03:39:30.976Z,16.30
2018-07-03T03:42:05.449Z,16.30
2018-07-03T03:44:39.789Z,16.32
2018-07-03T03:47:14.410Z,16.30
2018-07-03T03:49:48.898Z,16.33
2018-07-03T03:52:23.363Z,16.37
2018-07-03T03:54:58.021Z,16.39
2018-07-03T03:57:32.623Z,16.38
2018-07-03T04:00:08.607Z,16.35
2018-07-03T04:02:43.006Z,16.28
2018-07-03T04:05:17.575Z,16.44
2018-07-03T04:07:52.131Z,16.51
2018-07-03T04:10:26.484Z,16.59
2018-07-03T04:13:00.893Z,16.62
2018-07-03T04:15:35.328Z,16.57
2018-07-03T04:18:09.788Z,16.67
2018-07-03T04:20:44.403Z,16.70
2018-07-03T04:23:18.856Z,16.72
2018-07-03T04:25:53.541Z,16.73
2018-07-03T04:28:28.176Z,16.79
2018-07-03T04:31:03.368Z,16.92
2018-07-03T04:33:38.033Z,17.06
2018-07-03T04:36:12.574Z,17.05
2018-07-03T04:38:47.137Z,17.06
2018-07-03T04:41:21.687Z,17.15
2018-07-03T04:43:56.287Z,17.29
2018-07-03T04:46:30.644Z,17.50
2018-07-03T04:49:05.057Z,17.45
2018-07-03T04:51:39.648Z,17.71
2018-07-03T04:54:14.073Z,17.86
2018-07-03T04:56:48.471Z,17.98
2018-07-03T04:59:23.225Z,17.89
2018-07-03T05:01:57.909Z,18.11
2018-07-03T05:04:32.468Z,18.29
2018-07-03T05:07:07.128Z,18.34
2018-07-03T05:09:41.719Z,18.42
2018-07-03T05:12:16.200Z,18.40
2018-07-03T05:14:50.675Z,18.55
2018-07-03T05:17:25.265Z,18.69
2018-07-03T05:19:59.645Z,18.77
2018-07-03T05:22:34.083Z,18.81
2018-07-03T05:25:08.589Z,18.87
2018-07-03T05:27:42.964Z,18.96
2018-07-03T05:30:17.434Z,19.10
2018-07-03T05:32:52.039Z,19.18
2018-07-03T05:35:26.583Z,19.26
2018-07-03T05:38:01.025Z,19.31
2018-07-03T05:40:35.676Z,19.46
2018-07-03T05:43:10.271Z,19.47
2018-07-03T05:45:44.876Z,19.56
2018-07-03T05:48:19.412Z,19.60
2018-07-03T05:50:53.856Z,19.68
2018-07-03T05:53:28.622Z,19.83
2018-07-03T05:56:03.290Z,19.95
2018-07-03T05:58:37.933Z,20.13
2018-07-03T06:01:12.649Z,20.13
2018-07-03T06:03:47.260Z,20.15
2018-07-03T06:06:21.724Z,20.34
2018-07-03T06:08:56.317Z,20.44
2018-07-03T06:11:30.790Z,20.45
2018-07-03T06:14:05.212Z,20.49
2018-07-03T06:16:39.684Z,20.71
2018-07-03T06:19:14.309Z,20.87
2018-07-03T06:21:48.853Z,21.00
2018-07-03T06:24:23.368Z,21.18
2018-07-03T06:26:57.956Z,21.24
2018-07-03T06:29:32.389Z,21.35
2018-07-03T06:32:06.980Z,21.37
2018-07-03T06:34:41.596Z,21.73
2018-07-03T06:37:16.066Z,22.01
2018-07-03T06:39:50.493Z,22.01
2018-07-03T06:42:25.045Z,22.66
2018-07-03T06:44:59.593Z,25.29
2018-07-03T06:47:33.840Z,28.66
2018-07-03T06:50:08.266Z,30.29
2018-07-03T06:52:42.839Z,32.72
2018-07-03T06:55:17.173Z,32.91
2018-07-03T06:57:51.637Z,33.37
2018-07-03T07:00:26.136Z,34.17
2018-07-03T07:03:00.592Z,35.09
2018-07-03T07:05:34.952Z,36.33
2018-07-03T07:08:09.448Z,35.63
2018-07-03T07:10:43.692Z,36.20
2018-07-03T07:13:18.205Z,35.05
2018-07-03T07:15:52.761Z,35.38
2018-07-03T07:18:27.280Z,34.29
2018-07-03T07:21:01.713Z,36.99
2018-07-03T07:23:36.201Z,36.44
2018-07-03T07:26:10.837Z,37.06
2018-07-03T07:28:45.248Z,37.78
2018-07-03T07:31:19.724Z,35.57
2018-07-03T07:33:54.115Z,36.78
2018-07-03T07:36:28.515Z,38.64
2018-07-03T07:39:02.970Z,39.07
2018-07-03T07:41:37.485Z,37.72
2018-07-03T07:44:12.090Z,37.64
2018-07-03T07:46:53.104Z,37.07
2018-07-03T07:49:27.456Z,36.78
2018-07-03T07:52:01.966Z,37.99
2018-07-03T07:54:36.733Z,38.15
2018-07-03T07:57:11.176Z,38.75
2018-07-03T07:59:45.795Z,38.25
2018-07-03T08:02:20.333Z,37.21
2018-07-03T08:04:54.747Z,37.89
2018-07-03T08:07:29.497Z,37.00
2018-07-03T08:10:04.338Z,38.28
2018-07-03T08:12:38.880Z,37.54
2018-07-03T08:15:13.399Z,37.30
2018-07-03T08:17:47.988Z,37.35
2018-07-03T08:20:22.351Z,37.21
2018-07-03T08:22:56.725Z,36.81
2018-07-03T08:25:31.168Z,38.64
2018-07-03T08:28:05.656Z,37.77
2018-07-03T08:30:40.012Z,37.96
2018-07-03T08:33:15.358Z,39.31
2018-07-03T08:35:50.013Z,38.13
2018-07-03T08:38:24.444Z,37.23
2018-07-03T08:40:58.981Z,38.44
2018-07-03T08:43:33.529Z,39.05
2018-07-03T08:46:07.880Z,38.42
2018-07-03T08:48:42.349Z,40.42
2018-07-03T08:51:16.749Z,40.74
2018-07-03T08:53:51.257Z,40.98
2018-07-03T08:56:25.748Z,38.44
2018-07-03T08:59:00.121Z,39.42
2018-07-03T09:01:34.664Z,40.42
2018-07-03T09:04:09.063Z,39.83
2018-07-03T09:06:43.613Z,37.17
2018-07-03T09:09:18.108Z,39.89
2018-07-03T09:11:52.570Z,38.36
2018-07-03T09:14:26.864Z,36.54
2018-07-03T09:17:09.547Z,39.33
2018-07-03T09:19:43.908Z,38.30
2018-07-03T09:22:18.384Z,35.94
2018-07-03T09:24:52.867Z,37.03
2018-07-03T09:27:27.277Z,38.36
2018-07-03T09:30:01.609Z,40.47
2018-07-03T09:32:36.319Z,39.78
2018-07-03T09:35:10.918Z,40.12
2018-07-03T09:37:45.288Z,40.52
2018-07-03T09:40:19.886Z,37.94
2018-07-03T09:42:54.204Z,41.06
2018-07-03T09:45:28.706Z,38.47
2018-07-03T09:48:03.327Z,38.69
2018-07-03T09:50:37.703Z,40.68
2018-07-03T09:53:12.280Z,40.91
2018-07-03T09:55:46.761Z,41.04
2018-07-03T09:58:21.197Z,39.11
2018-07-03T10:00:56.781Z,37.68
2018-07-03T10:03:31.327Z,35.89
2018-07-03T10:06:05.635Z,38.55
2018-07-03T10:08:40.088Z,39.72
2018-07-03T10:11:14.952Z,39.04
2018-07-03T10:13:49.360Z,39.31
2018-07-03T10:16:23.665Z,41.27
2018-07-03T10:18:58.209Z,41.86
2018-07-03T10:21:32.559Z,38.44
2018-07-03T10:24:07.085Z,37.53
2018-07-03T10:26:41.444Z,37.53
2018-07-03T10:29:15.818Z,39.25
2018-07-03T10:31:50.264Z,40.99
2018-07-03T10:34:24.814Z,40.92
2018-07-03T10:36:59.460Z,40.54
2018-07-03T10:39:33.863Z,41.16
2018-07-03T10:42:08.395Z,41.72
2018-07-03T10:44:42.922Z,41.81
2018-07-03T10:47:17.302Z,36.44
2018-07-03T10:49:51.740Z,39.78
2018-07-03T10:52:26.266Z,39.85
2018-07-03T10:55:00.620Z,41.49
2018-07-03T10:57:35.060Z,38.91
2018-07-03T11:00:09.537Z,39.39
2018-07-03T11:02:44.617Z,41.28
2018-07-03T11:05:19.073Z,38.78
2018-07-03T11:07:53.393Z,39.66
2018-07-03T11:10:28.160Z,39.29
2018-07-03T11:13:02.568Z,40.07
2018-07-03T11:15:37.034Z,39.32
2018-07-03T11:18:11.524Z,40.52
2018-07-03T11:20:45.889Z,41.76
2018-07-03T11:23:20.221Z,42.55
2018-07-03T11:25:54.629Z,40.38
2018-07-03T11:28:29.040Z,40.47
2018-07-03T11:31:03.563Z,41.53
2018-07-03T11:33:37.959Z,41.09
2018-07-03T11:36:12.444Z,40.41
2018-07-03T11:38:46.877Z,40.97
2018-07-03T11:41:21.224Z,39.95
2018-07-03T11:43:55.640Z,38.97
2018-07-03T11:46:30.050Z,35.58
2018-07-03T11:49:04.423Z,38.37
2018-07-03T11:51:38.808Z,37.95
2018-07-03T11:54:13.331Z,36.98
2018-07-03T11:56:47.774Z,36.45
2018-07-03T11:59:22.216Z,35.68
2018-07-03T12:01:56.608Z,35.07
2018-07-03T12:04:31.192Z,33.39
2018-07-03T12:07:07.763Z,33.24
2018-07-03T12:09:42.096Z,32.38
2018-07-03T12:12:16.740Z,31.97
2018-07-03T12:14:51.433Z,31.16
2018-07-03T12:17:26.285Z,30.54
2018-07-03T12:20:00.832Z,30.14
2018-07-03T12:22:35.761Z,30.23
2018-07-03T12:25:10.488Z,29.20
2018-07-03T12:27:45.034Z,29.48
2018-07-03T12:30:19.510Z,28.49
2018-07-03T12:32:53.945Z,28.83
2018-07-03T12:35:28.378Z,29.22
2018-07-03T12:38:02.958Z,28.64
2018-07-03T12:40:38.207Z,28.61
2018-07-03T12:43:25.064Z,28.28
2018-07-03T12:46:07.937Z,28.25
2018-07-03T12:48:42.345Z,28.60
2018-07-03T12:51:16.812Z,28.63
2018-07-03T12:53:51.448Z,28.74
2018-07-03T12:56:25.971Z,28.71
2018-07-03T12:59:00.400Z,28.77
2018-07-03T13:01:34.764Z,28.49
2018-07-03T13:04:09.288Z,28.72
2018-07-03T13:06:43.685Z,28.41
2018-07-03T13:09:18.026Z,28.62
2018-07-03T13:11:52.464Z,28.23
2018-07-03T13:14:27.181Z,28.62
2018-07-03T13:17:01.729Z,28.60
2018-07-03T13:19:36.400Z,28.62
2018-07-03T13:22:10.940Z,28.62
2018-07-03T13:24:45.285Z,28.83
2018-07-03T13:27:19.676Z,28.76
2018-07-03T13:29:54.276Z,28.87
2018-07-03T13:32:28.733Z,28.66
2018-07-03T13:35:04.152Z,29.14
2018-07-03T13:37:38.777Z,29.18
2018-07-03T13:40:13.289Z,29.29
2018-07-03T13:42:47.925Z,29.44
2018-07-03T13:45:22.520Z,29.12
2018-07-03T13:47:56.963Z,28.80
2018-07-03T13:50:31.352Z,28.90
2018-07-03T13:53:05.775Z,28.91
2018-07-03T13:55:40.153Z,29.11
2018-07-03T13:58:14.657Z,29.21
2018-07-03T14:00:49.312Z,29.04
2018-07-03T14:03:23.944Z,29.46
2018-07-03T14:05:58.473Z,30.07
2018-07-03T14:08:32.828Z,30.20
2018-07-03T14:11:07.650Z,29.78
2018-07-03T14:13:42.164Z,29.77
2018-07-03T14:16:16.488Z,30.03
2018-07-03T14:18:50.824Z,30.38
2018-07-03T14:21:25.198Z,30.54
2018-07-03T14:30:01.178Z,32.34
2018-07-03T14:32:35.545Z,33.36
2018-07-03T14:35:10.004Z,33.50
2018-07-03T14:37:44.349Z,34.53
2018-07-03T14:40:18.874Z,34.83
2018-07-03T14:42:53.605Z,35.07
2018-07-03T14:45:28.162Z,35.30
2018-07-03T14:48:02.660Z,36.02
2018-07-03T14:50:37.168Z,36.51
2018-07-03T14:53:11.500Z,35.72
2018-07-03T14:55:46.048Z,35.34
2018-07-03T14:58:20.451Z,35.64
2018-07-03T15:00:55.101Z,36.66
2018-07-03T15:03:29.548Z,35.43
2018-07-03T15:06:04.161Z,34.77
2018-07-03T15:08:38.621Z,36.10
2018-07-03T15:11:13.024Z,34.30
2018-07-03T15:13:47.536Z,33.78
2018-07-03T15:16:22.036Z,34.38
2018-07-03T15:19:01.857Z,34.17
2018-07-03T15:21:36.380Z,34.02
2018-07-03T15:24:10.713Z,32.57
2018-07-03T15:26:45.159Z,32.35
2018-07-03T15:29:19.565Z,31.56
2018-07-03T15:31:53.965Z,31.58
2018-07-03T15:34:28.252Z,30.65
2018-07-03T15:37:02.680Z,30.70
2018-07-03T15:39:37.226Z,30.43
2018-07-03T15:42:11.556Z,30.74
2018-07-03T15:44:57.396Z,30.68
2018-07-03T15:47:31.802Z,30.65
2018-07-03T15:50:07.255Z,30.69
2018-07-03T15:52:41.784Z,30.52
2018-07-03T15:55:16.198Z,30.53
2018-07-03T15:57:50.618Z,29.91
2018-07-03T16:00:25.053Z,29.66
2018-07-03T16:03:10.810Z,29.38
2018-07-03T16:06:59.052Z,29.54
2018-07-03T16:09:33.355Z,29.32
2018-07-03T16:12:07.856Z,29.25
2018-07-03T16:14:42.347Z,29.22
2018-07-03T16:17:16.918Z,28.83
2018-07-03T16:19:56.776Z,28.92
2018-07-03T16:22:31.517Z,28.88
2018-07-03T16:25:06.710Z,28.78
2018-07-03T16:27:41.004Z,28.69
2018-07-03T16:30:15.428Z,28.55
2018-07-03T16:32:49.859Z,28.54
2018-07-03T16:35:24.298Z,28.45
2018-07-03T16:37:58.877Z,28.53
2018-07-03T16:40:33.272Z,28.43
2018-07-03T16:43:07.731Z,28.34
2018-07-03T16:45:42.548Z,28.23
2018-07-03T16:48:17.183Z,28.29
2018-07-03T16:50:51.759Z,28.23
2018-07-03T16:53:26.265Z,28.17
2018-07-03T16:56:00.737Z,28.05
2018-07-03T16:58:35.239Z,28.07
2018-07-03T17:01:10.129Z,27.96
2018-07-03T17:03:44.468Z,27.97
2018-07-03T17:06:19.076Z,28.00
2018-07-03T17:08:53.544Z,27.93
2018-07-03T17:11:28.087Z,27.81
2018-07-03T17:14:02.704Z,27.74
2018-07-03T17:16:37.436Z,27.74
2018-07-03T17:19:17.317Z,27.69
2018-07-03T17:21:51.880Z,27.58
2018-07-03T17:24:26.552Z,27.56
2018-07-03T17:27:01.072Z,27.48
2018-07-03T17:29:35.824Z,27.40
2018-07-03T17:32:10.180Z,27.27
2018-07-03T17:34:44.509Z,27.15
2018-07-03T17:37:18.969Z,27.00
2018-07-03T17:40:04.768Z,26.97
2018-07-03T17:43:54.416Z,26.88
2018-07-03T17:46:28.896Z,26.93
2018-07-03T17:49:03.419Z,26.95
2018-07-03T17:51:38.111Z,26.81
2018-07-03T17:54:12.433Z,26.71
2018-07-03T17:56:46.886Z,26.49
2018-07-03T17:59:21.412Z,26.36
2018-07-03T18:01:55.947Z,26.39
2018-07-03T18:04:30.344Z,26.49
2018-07-03T18:07:04.763Z,26.45
2018-07-03T18:09:39.132Z,26.27
2018-07-03T18:12:13.705Z,26.09
2018-07-03T18:14:48.138Z,25.96
2018-07-03T18:17:22.596Z,25.95
2018-07-03T18:19:56.952Z,25.88
2018-07-03T18:22:31.345Z,25.81
2018-07-03T18:25:06.036Z,25.75
2018-07-03T18:27:40.388Z,25.78
2018-07-03T18:30:14.838Z,25.80
2018-07-03T18:32:49.197Z,25.74
2018-07-03T18:35:23.686Z,25.50
2018-07-03T18:37:58.441Z,25.37
2018-07-03T18:40:32.888Z,25.27
2018-07-03T18:43:07.439Z,25.18
2018-07-03T18:45:41.997Z,25.08
2018-07-03T18:48:16.428Z,24.99
2018-07-03T18:50:50.946Z,24.94
2018-07-03T18:53:25.625Z,24.85
2018-07-03T18:56:00.140Z,24.80
2018-07-03T18:58:34.589Z,24.76
2018-07-03T19:01:09.175Z,24.66
2018-07-03T19:03:43.762Z,24.59
2018-07-03T19:06:18.326Z,24.49
2018-07-03T19:08:52.997Z,24.37
2018-07-03T19:11:27.457Z,24.29
2018-07-03T19:14:01.950Z,24.27
2018-07-03T19:16:36.347Z,24.18
2018-07-03T19:19:10.829Z,24.14
2018-07-03T19:21:45.502Z,24.09
2018-07-03T19:24:20.020Z,23.89
2018-07-03T19:26:54.533Z,23.88
2018-07-03T19:29:29.001Z,23.83
2018-07-03T19:32:03.532Z,23.73
2018-07-03T19:34:38.021Z,23.52
2018-07-03T19:37:12.667Z,23.44
2018-07-03T19:39:47.412Z,23.37
2018-07-03T19:42:21.999Z,23.26
2018-07-03T19:44:56.408Z,23.20
2018-07-03T19:47:31.009Z,23.04
2018-07-03T19:50:05.604Z,22.96
2018-07-03T19:52:40.210Z,22.93
2018-07-03T19:55:14.812Z,22.86
2018-07-03T19:57:49.284Z,22.87
2018-07-03T20:00:23.661Z,22.86
2018-07-03T20:02:58.076Z,22.83
2018-07-03T20:05:32.569Z,22.77
2018-07-03T20:08:07.444Z,22.72
2018-07-03T20:10:41.859Z,22.59
2018-07-03T20:13:17.417Z,22.55
2018-07-03T20:15:52.029Z,22.41
2018-07-03T20:18:26.640Z,22.33
2018-07-03T20:21:01.207Z,22.38
2018-07-03T20:23:35.940Z,22.42
2018-07-03T20:26:10.852Z,22.40
2018-07-03T20:28:45.248Z,22.20
2018-07-03T20:31:19.644Z,22.10
2018-07-03T20:33:54.035Z,22.01
2018-07-03T20:36:28.634Z,22.00
2018-07-03T20:39:04.703Z,21.99
2018-07-03T20:41:39.437Z,21.96
2018-07-03T20:44:14.066Z,21.88
2018-07-03T20:46:48.492Z,21.88
2018-07-03T20:49:22.969Z,22.04
2018-07-03T20:51:57.592Z,22.08
2018-07-03T20:54:32.077Z,22.15
2018-07-03T20:57:06.639Z,22.25
2018-07-03T20:59:41.316Z,22.39
2018-07-03T21:02:15.744Z,22.54
2018-07-03T21:04:50.227Z,22.50
2018-07-03T21:07:24.848Z,22.46
2018-07-03T21:09:59.429Z,22.34
2018-07-03T21:12:34.005Z,22.22
2018-07-03T21:15:08.592Z,22.37
2018-07-03T21:17:43.053Z,22.21
2018-07-03T21:20:17.513Z,22.27
2018-07-03T21:22:51.944Z,22.41
2018-07-03T21:25:26.300Z,22.45
2018-07-03T21:28:00.800Z,22.43
2018-07-03T21:30:35.288Z,22.46
2018-07-03T21:33:09.658Z,22.37
2018-07-03T21:35:44.298Z,22.35
2018-07-03T21:38:18.918Z,22.42
2018-07-03T21:40:53.505Z,22.39
2018-07-03T21:43:28.136Z,22.48
2018-07-03T21:46:02.563Z,22.30
2018-07-03T21:48:37.176Z,22.22
2018-07-03T21:51:11.725Z,22.07
2018-07-03T21:53:46.330Z,21.96
2018-07-03T21:56:20.969Z,21.95
2018-07-03T21:58:55.438Z,21.83
2018-07-03T22:01:29.838Z,21.86
2018-07-03T22:04:04.378Z,21.95
2018-07-03T22:06:38.984Z,21.94
2018-07-03T22:09:14.117Z,21.97
2018-07-03T22:11:48.752Z,22.08
2018-07-03T22:14:23.296Z,22.28
2018-07-03T22:16:57.817Z,22.49
2018-07-03T22:19:32.378Z,22.72
2018-07-03T22:22:07.082Z,22.82
2018-07-03T22:24:41.673Z,22.86
2018-07-03T22:27:16.246Z,22.86
2018-07-03T22:29:50.793Z,22.89
2018-07-03T22:32:25.212Z,22.88
2018-07-03T22:34:59.749Z,22.89
2018-07-03T22:37:34.257Z,22.91
2018-07-03T22:40:08.689Z,22.90
2018-07-03T22:42:43.389Z,22.87
2018-07-03T22:45:17.769Z,22.84
2018-07-03T22:47:52.246Z,22.79
2018-07-03T22:50:26.593Z,22.68
2018-07-03T22:53:01.933Z,22.63
2018-07-03T22:55:36.304Z,22.59
2018-07-03T22:58:10.896Z,22.56
2018-07-03T23:00:45.507Z,22.57
2018-07-03T23:03:19.949Z,22.56
2018-07-03T23:05:54.313Z,22.48
2018-07-03T23:08:28.701Z,22.44
2018-07-03T23:11:03.133Z,22.48
2018-07-03T23:13:37.541Z,22.49
2018-07-03T23:16:12.185Z,22.45
2018-07-03T23:18:46.796Z,22.41
2018-07-03T23:21:21.197Z,22.33
2018-07-03T23:23:55.782Z,22.34
2018-07-03T23:26:30.415Z,22.36
2018-07-03T23:29:04.923Z,22.30
2018-07-03T23:31:39.530Z,22.24
2018-07-03T23:34:14.057Z,22.25
2018-07-03T23:36:48.633Z,22.25
2018-07-03T23:39:23.164Z,22.23
2018-07-03T23:41:57.789Z,22.13
2018-07-03T23:44:32.576Z,22.02
2018-07-03T23:47:18.359Z,22.00
2018-07-03T23:50:04.113Z,21.95
2018-07-03T23:52:50.140Z,21.92
2018-07-03T23:55:35.801Z,21.79
2018-07-03T23:58:21.628Z,21.77
